Time;durP1;ratioP1;P1;durP2;ratioP2;P2;SDS_P1;SDS_P2;PMS_P1;PMS_P2;Temp;Humidity;BMP_temperature;BMP_pressure;BME280_temperature;BME280_humidity;BME280_pressure;Samples;Min_cycle;Max_cycle;Signal;HPM_P1;HPM_P2
2021/08/07 00:02:02;;;;;;;16.38;12.25;;;;;;;;;;5091518;28;20479;-46
2021/08/07 00:04:29;;;;;;;16.10;10.38;;;;;;;;;;5091660;28;20074;-47
2021/08/07 00:06:55;;;;;;;13.15;10.32;;;;;;;;;;5091860;28;20551;-47
2021/08/07 00:09:21;;;;;;;16.08;11.07;;;;;;;;;;5091858;28;20024;-50
2021/08/07 00:11:47;;;;;;;13.63;11.20;;;;;;;;;;5073739;28;20085;-47
2021/08/07 00:14:13;;;;;;;13.48;9.93;;;;;;;;;;5091937;28;20028;-46
2021/08/07 00:16:39;;;;;;;18.67;10.82;;;;;;;;;;5091464;28;20119;-49
2021/08/07 00:19:05;;;;;;;15.15;11.13;;;;;;;;;;5091639;28;20032;-50
2021/08/07 00:21:31;;;;;;;13.85;10.68;;;;;;;;;;5091425;28;20028;-45
2021/08/07 00:23:57;;;;;;;13.85;10.15;;;;;;;;;;5091548;28;20104;-48
2021/08/07 00:26:23;;;;;;;14.52;11.02;;;;;;;;;;5091526;28;20103;-48
2021/08/07 00:28:49;;;;;;;12.38;10.77;;;;;;;;;;5091577;28;20020;-48
2021/08/07 00:31:16;;;;;;;15.00;10.00;;;;;;;;;;5091366;28;20027;-48
2021/08/07 00:33:42;;;;;;;13.05;10.30;;;;;;;;;;5091491;28;20027;-45
2021/08/07 00:36:08;;;;;;;11.30;9.23;;;;;;;;;;5091588;28;20094;-49
2021/08/07 00:38:34;;;;;;;12.98;10.43;;;;;;;;;;5091263;28;20034;-44
2021/08/07 00:41:00;;;;;;;12.30;10.20;;;;;;;;;;5092340;28;20028;-46
2021/08/07 00:43:26;;;;;;;11.48;9.48;;;;;;;;;;5095116;28;20031;-46
2021/08/07 00:45:52;;;;;;;11.85;9.20;;;;;;;;;;5095117;28;20078;-47
2021/08/07 00:48:18;;;;;;;15.30;11.52;;;;;;;;;;5095105;28;20023;-50
2021/08/07 00:50:47;;;;;;;18.73;11.15;;;;;;;;;;5095110;28;20060;-49
2021/08/07 00:53:13;;;;;;;11.95;9.75;;;;;;;;;;5095121;28;20028;-45
2021/08/07 00:55:41;;;;;;;13.70;11.27;;;;;;;;;;5076839;28;20039;-45
2021/08/07 00:58:07;;;;;;;13.18;10.95;;;;;;;;;;5095011;28;20024;-47
2021/08/07 01:00:33;;;;;;;15.13;11.57;;;;;;;;;;5076546;28;20363;-46
2021/08/07 01:03:02;;;;;;;13.82;10.75;;;;;;;;;;5095012;28;20062;-45
2021/08/07 01:05:33;;;;;;;9.90;8.88;;;;;;;;;;5095047;28;20024;-47
2021/08/07 01:08:02;;;;;;;12.82;9.80;;;;;;;;;;5094879;28;20099;-49
2021/08/07 01:10:40;;;;;;;11.82;10.23;;;;;;;;;;5094800;28;20029;-46
2021/08/07 01:13:45;;;;;;;14.60;10.40;;;;;;;;;;5094639;28;20038;-48
2021/08/07 01:16:13;;;;;;;11.80;9.13;;;;;;;;;;4993083;28;20046;-46
2021/08/07 01:18:40;;;;;;;15.15;10.70;;;;;;;;;;4993204;28;20041;-45
2021/08/07 01:21:07;;;;;;;15.90;10.15;;;;;;;;;;5025566;28;20044;-47
2021/08/07 01:23:52;;;;;;;10.35;8.45;;;;;;;;;;5094454;28;20016;-48
2021/08/07 01:26:27;;;;;;;15.27;10.15;;;;;;;;;;5094421;28;20020;-46
2021/08/07 01:28:53;;;;;;;12.77;10.27;;;;;;;;;;5094381;28;20016;-49
2021/08/07 01:31:20;;;;;;;12.60;9.52;;;;;;;;;;5094174;28;20429;-46
2021/08/07 01:33:46;;;;;;;14.13;9.45;;;;;;;;;;5094242;28;20032;-46
2021/08/07 01:36:14;;;;;;;12.30;9.63;;;;;;;;;;5094207;28;20032;-46
2021/08/07 01:38:42;;;;;;;11.63;9.65;;;;;;;;;;5094111;28;20463;-45
2021/08/07 01:41:19;;;;;;;12.65;9.65;;;;;;;;;;5094075;28;20035;-47
2021/08/07 01:43:45;;;;;;;11.43;9.13;;;;;;;;;;5075912;28;20114;-46
2021/08/07 01:46:12;;;;;;;11.68;9.63;;;;;;;;;;5093963;28;20024;-46
2021/08/07 01:48:59;;;;;;;11.07;8.70;;;;;;;;;;5076071;28;20481;-46
2021/08/07 01:51:38;;;;;;;11.63;9.20;;;;;;;;;;5094102;28;20165;-44
2021/08/07 01:54:06;;;;;;;12.68;9.02;;;;;;;;;;5093241;28;20028;-46
2021/08/07 01:56:33;;;;;;;10.93;9.63;;;;;;;;;;5093925;28;20109;-46
2021/08/07 01:59:03;;;;;;;12.63;8.52;;;;;;;;;;5093972;28;20024;-45
2021/08/07 02:01:30;;;;;;;12.18;8.75;;;;;;;;;;5093727;28;20028;-45
2021/08/07 02:03:57;;;;;;;12.10;9.77;;;;;;;;;;5093925;28;20035;-46
2021/08/07 02:06:23;;;;;;;11.02;8.13;;;;;;;;;;5093744;28;20482;-45
2021/08/07 02:08:49;;;;;;;9.90;8.57;;;;;;;;;;5093648;28;20023;-45
2021/08/07 02:11:16;;;;;;;12.82;10.02;;;;;;;;;;5075532;28;20024;-45
2021/08/07 02:13:42;;;;;;;11.20;9.75;;;;;;;;;;5093503;28;20062;-44
2021/08/07 02:16:09;;;;;;;12.00;10.10;;;;;;;;;;5093124;28;20371;-45
2021/08/07 02:18:35;;;;;;;15.70;11.07;;;;;;;;;;5093638;28;20214;-44
2021/08/07 02:21:01;;;;;;;12.00;10.00;;;;;;;;;;5093335;28;20511;-44
2021/08/07 02:23:27;;;;;;;13.63;9.93;;;;;;;;;;5093426;28;20026;-45
2021/08/07 02:25:55;;;;;;;15.48;8.90;;;;;;;;;;5093162;28;20032;-45
2021/08/07 02:28:23;;;;;;;14.10;9.57;;;;;;;;;;5093288;28;20503;-44
2021/08/07 02:30:50;;;;;;;15.20;10.10;;;;;;;;;;5093357;28;20073;-46
2021/08/07 02:33:16;;;;;;;11.00;9.15;;;;;;;;;;5092143;28;20112;-45
2021/08/07 02:35:43;;;;;;;16.40;9.95;;;;;;;;;;5078592;28;20085;-45
2021/08/07 02:38:09;;;;;;;11.27;9.98;;;;;;;;;;5093087;28;20023;-44
2021/08/07 02:40:35;;;;;;;10.57;9.48;;;;;;;;;;5092985;28;20028;-47
2021/08/07 02:43:02;;;;;;;11.75;10.60;;;;;;;;;;5093167;28;20027;-48
2021/08/07 02:45:28;;;;;;;11.55;9.75;;;;;;;;;;5074985;28;20479;-47
2021/08/07 02:47:54;;;;;;;12.13;9.20;;;;;;;;;;5092924;28;20099;-48
2021/08/07 02:50:20;;;;;;;10.45;9.15;;;;;;;;;;5092846;28;20493;-46
2021/08/07 02:52:47;;;;;;;13.63;10.00;;;;;;;;;;5092952;28;20032;-46
2021/08/07 02:55:13;;;;;;;12.45;9.55;;;;;;;;;;5092535;28;20999;-46
2021/08/07 02:57:39;;;;;;;14.27;9.90;;;;;;;;;;5092564;28;20367;-47
2021/08/07 03:00:06;;;;;;;12.85;10.65;;;;;;;;;;5074363;28;20020;-46
2021/08/07 03:02:32;;;;;;;11.63;9.60;;;;;;;;;;5072876;28;20024;-47
2021/08/07 03:04:58;;;;;;;14.13;9.55;;;;;;;;;;5090651;28;20479;-45
2021/08/07 03:07:24;;;;;;;9.93;8.60;;;;;;;;;;5092075;28;20085;-45
2021/08/07 03:09:50;;;;;;;11.77;9.60;;;;;;;;;;5074295;28;20036;-48
2021/08/07 03:12:16;;;;;;;10.50;8.32;;;;;;;;;;5092352;28;20422;-46
2021/08/07 03:14:43;;;;;;;12.23;8.50;;;;;;;;;;5092483;28;20024;-45
2021/08/07 03:17:09;;;;;;;12.48;9.45;;;;;;;;;;5092233;28;20079;-44
2021/08/07 03:19:35;;;;;;;9.57;8.50;;;;;;;;;;5092298;28;20032;-45
2021/08/07 03:22:01;;;;;;;11.40;8.13;;;;;;;;;;5092097;28;20074;-48
2021/08/07 03:24:27;;;;;;;12.48;9.82;;;;;;;;;;5092378;28;20451;-48
2021/08/07 03:26:54;;;;;;;9.77;8.73;;;;;;;;;;5092321;28;20031;-45
2021/08/07 03:29:20;;;;;;;9.98;8.45;;;;;;;;;;5092045;28;20542;-48
2021/08/07 03:31:46;;;;;;;14.02;9.07;;;;;;;;;;5091589;28;20039;-46
2021/08/07 03:34:12;;;;;;;12.88;10.27;;;;;;;;;;5092084;28;20459;-45
2021/08/07 03:36:38;;;;;;;11.88;9.25;;;;;;;;;;5091961;28;20035;-48
2021/08/07 03:39:05;;;;;;;10.68;9.40;;;;;;;;;;5091744;28;20032;-49
2021/08/07 03:41:31;;;;;;;11.85;9.75;;;;;;;;;;5091988;28;20024;-46
2021/08/07 03:43:57;;;;;;;14.57;10.18;;;;;;;;;;5091947;28;20077;-44
2021/08/07 03:46:23;;;;;;;11.15;9.35;;;;;;;;;;5091941;28;20048;-44
2021/08/07 03:48:50;;;;;;;12.45;10.38;;;;;;;;;;5091749;28;20059;-47
2021/08/07 03:51:16;;;;;;;15.57;9.95;;;;;;;;;;5091660;28;20089;-44
2021/08/07 03:53:42;;;;;;;11.77;9.80;;;;;;;;;;5091739;28;20024;-45
2021/08/07 03:56:08;;;;;;;12.45;9.60;;;;;;;;;;5092015;28;20043;-47
2021/08/07 03:58:34;;;;;;;14.52;10.43;;;;;;;;;;5092035;28;20776;-47
2021/08/07 04:01:00;;;;;;;13.05;9.05;;;;;;;;;;5090326;28;20031;-46
2021/08/07 04:03:26;;;;;;;14.18;11.07;;;;;;;;;;5082695;28;20069;-44
2021/08/07 04:05:52;;;;;;;13.15;10.25;;;;;;;;;;5081276;28;20024;-45
2021/08/07 04:08:18;;;;;;;12.00;9.02;;;;;;;;;;5082015;28;20020;-48
2021/08/07 04:10:45;;;;;;;11.32;9.20;;;;;;;;;;5079990;28;20066;-44
2021/08/07 04:13:11;;;;;;;14.30;10.20;;;;;;;;;;5081050;28;20021;-49
2021/08/07 04:15:38;;;;;;;12.18;9.63;;;;;;;;;;5080054;28;20028;-45
2021/08/07 04:18:04;;;;;;;11.68;9.88;;;;;;;;;;5075329;28;20052;-49
2021/08/07 04:20:30;;;;;;;12.50;9.43;;;;;;;;;;5075279;28;20051;-46
2021/08/07 04:22:56;;;;;;;11.85;8.25;;;;;;;;;;5075336;28;20017;-45
2021/08/07 04:25:22;;;;;;;12.45;9.50;;;;;;;;;;5088328;28;20467;-45
2021/08/07 04:27:48;;;;;;;10.25;9.20;;;;;;;;;;5093298;28;20020;-47
2021/08/07 04:30:15;;;;;;;10.85;9.75;;;;;;;;;;5091365;28;20471;-46
2021/08/07 04:32:41;;;;;;;11.18;9.38;;;;;;;;;;5092059;28;20016;-47
2021/08/07 04:35:08;;;;;;;10.48;9.13;;;;;;;;;;5094554;28;20024;-47
2021/08/07 04:38:03;;;;;;;10.57;9.07;;;;;;;;;;5076739;28;20382;-46
2021/08/07 04:40:30;;;;;;;10.40;8.02;;;;;;;;;;5073102;28;20036;-45
2021/08/07 04:42:57;;;;;;;10.63;8.25;;;;;;;;;;5093448;28;20024;-45
2021/08/07 04:45:23;;;;;;;12.55;9.45;;;;;;;;;;5090074;28;20020;-46
2021/08/07 04:47:59;;;;;;;14.48;9.90;;;;;;;;;;5089947;28;20012;-46
2021/08/07 04:50:26;;;;;;;11.38;9.85;;;;;;;;;;5084983;28;20009;-48
2021/08/07 04:52:54;;;;;;;11.88;9.27;;;;;;;;;;5084024;28;20008;-46
2021/08/07 04:55:20;;;;;;;12.07;10.35;;;;;;;;;;5089664;28;20016;-45
2021/08/07 04:57:46;;;;;;;11.63;9.20;;;;;;;;;;5085074;28;20330;-46
2021/08/07 05:00:13;;;;;;;11.10;10.00;;;;;;;;;;5089580;28;20374;-45
2021/08/07 05:02:40;;;;;;;12.52;11.23;;;;;;;;;;5089941;28;20028;-47
2021/08/07 05:05:06;;;;;;;13.05;11.18;;;;;;;;;;5084415;28;20469;-47
2021/08/07 05:07:32;;;;;;;20.48;13.52;;;;;;;;;;5083262;28;20055;-47
2021/08/07 05:10:01;;;;;;;15.35;13.75;;;;;;;;;;5084686;28;20054;-46
2021/08/07 05:12:28;;;;;;;17.67;14.55;;;;;;;;;;5084826;28;20034;-48
2021/08/07 05:14:55;;;;;;;21.08;16.77;;;;;;;;;;5085923;28;20047;-45
2021/08/07 05:17:21;;;;;;;16.30;13.70;;;;;;;;;;5064787;28;20044;-45
2021/08/07 05:19:47;;;;;;;23.35;19.23;;;;;;;;;;5071947;28;20032;-45
2021/08/07 05:22:13;;;;;;;25.65;20.75;;;;;;;;;;5061760;28;20320;-46
2021/08/07 05:24:39;;;;;;;21.08;16.00;;;;;;;;;;5054329;28;20472;-47
2021/08/07 05:27:05;;;;;;;21.13;17.75;;;;;;;;;;5053906;28;20025;-46
2021/08/07 05:29:31;;;;;;;25.25;17.13;;;;;;;;;;5053147;28;20036;-46
2021/08/07 05:31:58;;;;;;;30.55;23.75;;;;;;;;;;5054553;28;20028;-46
2021/08/07 05:34:24;;;;;;;27.20;21.23;;;;;;;;;;5054017;28;20021;-45
2021/08/07 05:36:50;;;;;;;35.13;25.98;;;;;;;;;;5054033;28;20033;-46
2021/08/07 05:39:16;;;;;;;36.10;27.85;;;;;;;;;;5053915;28;20419;-45
2021/08/07 05:41:42;;;;;;;28.65;23.10;;;;;;;;;;5053893;28;20078;-46
2021/08/07 05:44:08;;;;;;;35.35;27.17;;;;;;;;;;5054004;28;20074;-52
2021/08/07 05:46:34;;;;;;;31.08;24.80;;;;;;;;;;5054109;28;20024;-49
2021/08/07 05:49:00;;;;;;;36.50;29.17;;;;;;;;;;5052677;28;20028;-47
2021/08/07 05:51:26;;;;;;;35.85;27.35;;;;;;;;;;5053782;28;20025;-46
2021/08/07 05:53:53;;;;;;;41.67;29.67;;;;;;;;;;5053745;28;20032;-45
2021/08/07 05:56:19;;;;;;;38.13;28.00;;;;;;;;;;5053570;28;20440;-47
2021/08/07 05:58:45;;;;;;;37.42;27.33;;;;;;;;;;5052439;28;20025;-46
2021/08/07 06:01:11;;;;;;;41.58;28.98;;;;;;;;;;5053464;28;20040;-47
2021/08/07 06:03:37;;;;;;;33.92;23.85;;;;;;;;;;5053464;28;20025;-46
2021/08/07 06:06:03;;;;;;;33.85;26.65;;;;;;;;;;5053506;28;20091;-47
2021/08/07 06:08:29;;;;;;;38.50;26.17;;;;;;;;;;5053434;28;20095;-46
2021/08/07 06:10:56;;;;;;;39.78;28.42;;;;;;;;;;5053440;28;20036;-47
2021/08/07 06:13:22;;;;;;;43.05;29.58;;;;;;;;;;5053608;28;20108;-46
2021/08/07 06:15:49;;;;;;;38.67;28.65;;;;;;;;;;5053336;28;20371;-46
2021/08/07 06:18:15;;;;;;;40.03;30.90;;;;;;;;;;5072011;28;20059;-47
2021/08/07 06:20:42;;;;;;;39.45;30.63;;;;;;;;;;5055243;28;20060;-49
2021/08/07 06:23:08;;;;;;;37.33;28.42;;;;;;;;;;5073412;28;20060;-47
2021/08/07 06:25:34;;;;;;;43.25;29.15;;;;;;;;;;5073253;28;20036;-48
2021/08/07 06:28:00;;;;;;;39.40;28.17;;;;;;;;;;5073036;28;20103;-47
2021/08/07 06:30:27;;;;;;;34.67;25.92;;;;;;;;;;5072937;28;20025;-47
2021/08/07 06:32:53;;;;;;;38.90;27.77;;;;;;;;;;5073101;28;20114;-46
2021/08/07 06:35:19;;;;;;;33.30;26.92;;;;;;;;;;5072855;28;20440;-46
2021/08/07 06:37:45;;;;;;;32.53;24.58;;;;;;;;;;5072686;28;20020;-45
2021/08/07 06:40:12;;;;;;;28.25;22.67;;;;;;;;;;5072174;28;20017;-45
2021/08/07 06:42:39;;;;;;;31.90;24.50;;;;;;;;;;5072830;28;20035;-47
2021/08/07 06:45:05;;;;;;;30.10;23.92;;;;;;;;;;5072576;28;20020;-48
2021/08/07 06:47:31;;;;;;;25.92;22.00;;;;;;;;;;5072548;28;20032;-45
2021/08/07 06:49:57;;;;;;;22.80;20.27;;;;;;;;;;5072733;28;20028;-48
2021/08/07 06:52:23;;;;;;;22.20;18.17;;;;;;;;;;5072602;28;20028;-45
2021/08/07 06:54:49;;;;;;;20.45;17.80;;;;;;;;;;5072625;28;20035;-48
2021/08/07 06:57:16;;;;;;;21.65;18.35;;;;;;;;;;5072706;28;20392;-49
2021/08/07 06:59:42;;;;;;;22.27;16.83;;;;;;;;;;5072331;28;20027;-47
2021/08/07 07:02:08;;;;;;;17.95;15.15;;;;;;;;;;5072369;28;20468;-48
2021/08/07 07:04:34;;;;;;;18.23;16.27;;;;;;;;;;5054340;28;20360;-47
2021/08/07 07:07:01;;;;;;;16.77;14.98;;;;;;;;;;5079362;28;20024;-46
2021/08/07 07:09:27;;;;;;;17.27;15.55;;;;;;;;;;5079881;28;20020;-47
2021/08/07 07:11:53;;;;;;;15.25;13.68;;;;;;;;;;5081392;28;20016;-46
2021/08/07 07:14:20;;;;;;;15.73;14.02;;;;;;;;;;5063578;28;20443;-47
2021/08/07 07:16:46;;;;;;;13.52;12.23;;;;;;;;;;5079566;28;20095;-47
2021/08/07 07:19:12;;;;;;;15.57;13.98;;;;;;;;;;5081228;28;20052;-52
2021/08/07 07:21:38;;;;;;;15.75;12.75;;;;;;;;;;5080857;28;20054;-46
2021/08/07 07:24:04;;;;;;;12.52;11.43;;;;;;;;;;5077232;28;20030;-48
2021/08/07 07:26:30;;;;;;;12.63;10.48;;;;;;;;;;5071807;28;20020;-46
2021/08/07 07:28:57;;;;;;;10.82;9.82;;;;;;;;;;5072066;28;20024;-49
2021/08/07 07:31:23;;;;;;;10.98;9.88;;;;;;;;;;5072187;28;20803;-46
2021/08/07 07:33:49;;;;;;;9.93;8.93;;;;;;;;;;5071803;28;20032;-47
2021/08/07 07:36:16;;;;;;;9.10;8.15;;;;;;;;;;5071835;28;20032;-50
2021/08/07 07:38:42;;;;;;;10.52;7.97;;;;;;;;;;5071876;28;20016;-48
2021/08/07 07:41:09;;;;;;;7.05;6.45;;;;;;;;;;5083899;28;20028;-47
2021/08/07 07:43:35;;;;;;;9.98;7.60;;;;;;;;;;5088822;28;20027;-43
2021/08/07 07:46:01;;;;;;;9.48;7.68;;;;;;;;;;5091948;28;20024;-48
2021/08/07 07:48:27;;;;;;;7.93;7.13;;;;;;;;;;5091727;28;20031;-49
2021/08/07 07:50:53;;;;;;;7.22;6.53;;;;;;;;;;5090937;28;20027;-45
2021/08/07 07:53:19;;;;;;;7.00;6.30;;;;;;;;;;5091668;28;20024;-45
2021/08/07 07:55:45;;;;;;;7.35;6.65;;;;;;;;;;5091687;28;20024;-45
2021/08/07 07:58:11;;;;;;;8.27;6.53;;;;;;;;;;5091791;28;20031;-45
2021/08/07 08:00:38;;;;;;;9.02;6.30;;;;;;;;;;5091610;28;20024;-45
2021/08/07 08:03:07;;;;;;;6.47;5.68;;;;;;;;;;5056925;28;20020;-44
2021/08/07 08:05:33;;;;;;;6.05;5.55;;;;;;;;;;5091068;28;20020;-47
2021/08/07 08:07:59;;;;;;;7.63;6.20;;;;;;;;;;5079112;28;20024;-47
2021/08/07 08:10:25;;;;;;;5.90;5.40;;;;;;;;;;5081135;28;20383;-45
2021/08/07 08:12:51;;;;;;;6.63;6.00;;;;;;;;;;5082477;28;20020;-44
2021/08/07 08:15:18;;;;;;;5.90;5.35;;;;;;;;;;5079608;28;20038;-44
2021/08/07 08:17:44;;;;;;;6.00;5.40;;;;;;;;;;5081168;28;20045;-45
2021/08/07 08:20:10;;;;;;;6.13;5.63;;;;;;;;;;5081880;28;20020;-45
2021/08/07 08:22:37;;;;;;;6.47;5.78;;;;;;;;;;5079672;28;20030;-46
2021/08/07 08:25:03;;;;;;;6.70;5.90;;;;;;;;;;5090713;28;20066;-45
2021/08/07 08:27:29;;;;;;;6.45;5.75;;;;;;;;;;5091402;28;20021;-44
2021/08/07 08:29:58;;;;;;;8.27;5.18;;;;;;;;;;5077514;28;20475;-44
2021/08/07 08:32:24;;;;;;;6.05;5.55;;;;;;;;;;5071394;28;20505;-45
2021/08/07 08:34:50;;;;;;;7.35;5.70;;;;;;;;;;5066658;28;20028;-46
2021/08/07 08:37:16;;;;;;;5.95;4.95;;;;;;;;;;5075600;28;20033;-44
2021/08/07 08:39:42;;;;;;;7.60;5.03;;;;;;;;;;5079761;28;20028;-45
2021/08/07 08:42:08;;;;;;;8.52;4.88;;;;;;;;;;5070880;28;20025;-45
2021/08/07 08:44:38;;;;;;;5.38;4.80;;;;;;;;;;5087103;28;20029;-45
2021/08/07 08:47:05;;;;;;;7.75;5.13;;;;;;;;;;5091195;28;20455;-45
2021/08/07 08:49:32;;;;;;;6.90;4.55;;;;;;;;;;5063583;28;20673;-46
2021/08/07 08:52:00;;;;;;;7.88;4.50;;;;;;;;;;5081577;28;20390;-45
2021/08/07 08:54:26;;;;;;;7.70;5.28;;;;;;;;;;5079340;28;20028;-45
2021/08/07 08:56:53;;;;;;;7.57;5.13;;;;;;;;;;5080773;28;20020;-44
2021/08/07 08:59:19;;;;;;;6.32;5.30;;;;;;;;;;5080403;28;20493;-46
2021/08/07 09:01:45;;;;;;;6.95;4.25;;;;;;;;;;5080484;28;20021;-45
2021/08/07 09:04:11;;;;;;;5.63;4.70;;;;;;;;;;5088338;28;20020;-45
2021/08/07 09:06:37;;;;;;;5.88;4.78;;;;;;;;;;5094722;28;20024;-44
2021/08/07 09:09:10;;;;;;;4.78;4.28;;;;;;;;;;5094932;28;20391;-45
2021/08/07 09:11:38;;;;;;;6.57;5.05;;;;;;;;;;5076097;28;20110;-44
2021/08/07 09:14:24;;;;;;;5.47;4.97;;;;;;;;;;5094685;28;20417;-44
2021/08/07 09:16:59;;;;;;;6.05;4.40;;;;;;;;;;5094602;28;20048;-45
2021/08/07 09:19:25;;;;;;;4.45;4.15;;;;;;;;;;5075850;28;20605;-44
2021/08/07 09:22:10;;;;;;;5.50;5.00;;;;;;;;;;5094349;28;20070;-45
2021/08/07 09:24:55;;;;;;;4.88;4.47;;;;;;;;;;5094410;28;20575;-45
2021/08/07 09:27:20;;;;;;;;;;;;;;;;;;5094852;28;20052;-43
2021/08/07 09:29:46;;;;;;;5.38;4.32;;;;;;;;;;5094456;28;20012;-44
2021/08/07 09:32:12;;;;;;;5.07;4.68;;;;;;;;;;5094200;28;20027;-45
2021/08/07 09:34:38;;;;;;;7.00;4.82;;;;;;;;;;5094173;28;20467;-49
2021/08/07 09:37:05;;;;;;;5.45;5.00;;;;;;;;;;5094214;28;20016;-45
2021/08/07 09:39:49;;;;;;;4.72;4.30;;;;;;;;;;5094009;28;20031;-46
2021/08/07 09:42:15;;;;;;;;;;;;;;;;;;5092904;28;20024;-45
2021/08/07 09:44:41;;;;;;;4.65;4.25;;;;;;;;;;5094029;28;19904;-45
2021/08/07 09:47:17;;;;;;;4.50;4.10;;;;;;;;;;5093438;28;20030;-47
2021/08/07 09:49:45;;;;;;;4.47;3.50;;;;;;;;;;5094005;28;20020;-45
2021/08/07 09:52:11;;;;;;;5.50;3.80;;;;;;;;;;5094195;28;20547;-44
2021/08/07 09:54:38;;;;;;;3.70;3.40;;;;;;;;;;5093578;28;20425;-48
2021/08/07 09:57:05;;;;;;;3.75;3.45;;;;;;;;;;5093991;28;20024;-44
2021/08/07 09:59:33;;;;;;;4.85;4.20;;;;;;;;;;5093381;28;20110;-44
2021/08/07 10:01:59;;;;;;;5.13;3.58;;;;;;;;;;5093424;28;20052;-45
2021/08/07 10:04:25;;;;;;;3.80;3.50;;;;;;;;;;5091699;28;20024;-45
2021/08/07 10:07:09;;;;;;;4.07;3.63;;;;;;;;;;5090116;28;20110;-48
2021/08/07 10:09:35;;;;;;;3.88;3.30;;;;;;;;;;5089454;28;20012;-47
2021/08/07 10:12:03;;;;;;;3.70;3.40;;;;;;;;;;5086327;28;20442;-46
2021/08/07 10:14:29;;;;;;;3.60;3.40;;;;;;;;;;5070611;28;20075;-45
2021/08/07 10:16:56;;;;;;;3.97;2.90;;;;;;;;;;5088833;28;20381;-45
2021/08/07 10:19:22;;;;;;;2.78;2.65;;;;;;;;;;5068949;28;20028;-46
2021/08/07 10:21:49;;;;;;;3.40;3.20;;;;;;;;;;5085591;28;20020;-45
2021/08/07 10:24:16;;;;;;;3.13;2.92;;;;;;;;;;5071405;28;20495;-46
2021/08/07 10:26:45;;;;;;;2.80;2.60;;;;;;;;;;5093153;28;20052;-45
2021/08/07 10:29:11;;;;;;;3.55;3.25;;;;;;;;;;5093236;28;20020;-45
2021/08/07 10:31:37;;;;;;;3.10;2.80;;;;;;;;;;5092292;28;20058;-45
2021/08/07 10:34:05;;;;;;;3.28;2.97;;;;;;;;;;5072094;28;20024;-46
2021/08/07 10:36:31;;;;;;;2.95;2.75;;;;;;;;;;5088298;28;20026;-45
2021/08/07 10:39:01;;;;;;;2.75;2.60;;;;;;;;;;5088476;28;20790;-47
2021/08/07 10:41:28;;;;;;;3.95;2.90;;;;;;;;;;5065032;28;20393;-44
2021/08/07 10:43:55;;;;;;;2.90;2.70;;;;;;;;;;5062767;28;20020;-46
2021/08/07 10:46:21;;;;;;;3.10;2.80;;;;;;;;;;5083110;28;20439;-44
2021/08/07 10:48:48;;;;;;;3.25;2.95;;;;;;;;;;5081678;28;20394;-45
2021/08/07 10:51:30;;;;;;;3.17;2.97;;;;;;;;;;5082773;28;20090;-47
2021/08/07 10:54:06;;;;;;;3.65;2.95;;;;;;;;;;5083271;28;20099;-45
2021/08/07 10:56:36;;;;;;;3.10;2.90;;;;;;;;;;5092881;28;20387;-46
2021/08/07 10:59:12;;;;;;;3.03;2.83;;;;;;;;;;5092517;28;20035;-44
2021/08/07 11:01:39;;;;;;;5.22;3.10;;;;;;;;;;5073758;28;20077;-46
2021/08/07 11:04:07;;;;;;;3.47;2.85;;;;;;;;;;5089199;28;20024;-44
2021/08/07 11:06:39;;;;;;;2.85;2.67;;;;;;;;;;5088079;28;20008;-45
2021/08/07 11:09:14;;;;;;;3.08;2.40;;;;;;;;;;5082210;28;20035;-46
2021/08/07 11:11:41;;;;;;;2.90;2.70;;;;;;;;;;5085539;28;20099;-44
2021/08/07 11:14:30;;;;;;;2.95;2.72;;;;;;;;;;5081408;28;20028;-45
2021/08/07 11:17:05;;;;;;;3.10;2.90;;;;;;;;;;5062750;28;20036;-45
2021/08/07 11:19:45;;;;;;;4.60;2.90;;;;;;;;;;5082928;28;20480;-45
2021/08/07 11:22:11;;;;;;;3.10;2.90;;;;;;;;;;5081264;28;20024;-44
2021/08/07 11:24:49;;;;;;;3.38;3.08;;;;;;;;;;5084727;28;20095;-46
2021/08/07 11:27:16;;;;;;;2.95;2.75;;;;;;;;;;5083008;28;20044;-45
2021/08/07 11:30:01;;;;;;;2.97;2.70;;;;;;;;;;5085030;28;20035;-44
2021/08/07 11:32:27;;;;;;;2.60;2.45;;;;;;;;;;5082060;28;20032;-44
2021/08/07 11:34:53;;;;;;;3.13;2.83;;;;;;;;;;5067716;28;20390;-47
2021/08/07 11:37:20;;;;;;;3.00;2.80;;;;;;;;;;5081220;28;20036;-44
2021/08/07 11:40:09;;;;;;;2.80;2.60;;;;;;;;;;5084424;28;20020;-45
2021/08/07 11:42:39;;;;;;;2.92;2.72;;;;;;;;;;5073484;28;20544;-44
2021/08/07 11:45:06;;;;;;;2.75;2.55;;;;;;;;;;5083586;28;20021;-44
2021/08/07 11:47:32;;;;;;;2.58;2.40;;;;;;;;;;5067774;28;20081;-44
2021/08/07 11:49:59;;;;;;;2.70;2.50;;;;;;;;;;5083025;28;20500;-45
2021/08/07 11:52:31;;;;;;;2.20;2.10;;;;;;;;;;5083351;28;20077;-45
2021/08/07 11:54:57;;;;;;;2.30;2.10;;;;;;;;;;5080279;28;20538;-46
2021/08/07 11:57:24;;;;;;;2.13;2.00;;;;;;;;;;5078133;28;20694;-44
2021/08/07 11:59:50;;;;;;;2.03;1.70;;;;;;;;;;5081244;28;20102;-47
2021/08/07 12:02:16;;;;;;;2.20;2.10;;;;;;;;;;5086486;28;20024;-46
2021/08/07 12:04:43;;;;;;;1.90;1.80;;;;;;;;;;5083678;28;20467;-46
2021/08/07 12:07:13;;;;;;;2.40;2.20;;;;;;;;;;5078965;28;20016;-45
2021/08/07 12:09:59;;;;;;;3.70;1.88;;;;;;;;;;5083850;28;20031;-47
2021/08/07 12:12:25;;;;;;;2.47;2.28;;;;;;;;;;5071528;28;20037;-44
2021/08/07 12:14:51;;;;;;;2.47;2.33;;;;;;;;;;5071220;28;20120;-45
2021/08/07 12:17:17;;;;;;;2.10;2.00;;;;;;;;;;5079776;28;20123;-44
2021/08/07 12:19:43;;;;;;;2.20;2.10;;;;;;;;;;5075601;28;20029;-44
2021/08/07 12:22:09;;;;;;;2.53;2.33;;;;;;;;;;5084275;28;20028;-44
2021/08/07 12:24:35;;;;;;;2.72;2.10;;;;;;;;;;5085255;28;20077;-45
2021/08/07 12:27:01;;;;;;;2.15;2.05;;;;;;;;;;5084867;28;20016;-47
2021/08/07 12:29:30;;;;;;;2.17;2.08;;;;;;;;;;5078238;28;20032;-45
2021/08/07 12:32:00;;;;;;;2.10;2.00;;;;;;;;;;5053439;28;20118;-45
2021/08/07 12:34:30;;;;;;;2.40;2.20;;;;;;;;;;5072749;28;20031;-43
2021/08/07 12:37:00;;;;;;;1.77;1.70;;;;;;;;;;5080049;28;20093;-45
2021/08/07 12:39:27;;;;;;;2.17;2.08;;;;;;;;;;5084318;28;20024;-44
2021/08/07 12:41:54;;;;;;;1.90;1.80;;;;;;;;;;5084556;28;20031;-45
2021/08/07 12:44:24;;;;;;;2.30;2.08;;;;;;;;;;5065248;28;20099;-45
2021/08/07 12:46:53;;;;;;;2.95;2.13;;;;;;;;;;5064790;28;20471;-43
2021/08/07 12:49:34;;;;;;;2.65;1.90;;;;;;;;;;5085914;28;20051;-44
2021/08/07 12:52:04;;;;;;;2.55;1.90;;;;;;;;;;5084198;28;20108;-44
2021/08/07 12:54:30;;;;;;;2.17;2.00;;;;;;;;;;5064573;28;20549;-44
2021/08/07 12:56:56;;;;;;;2.42;1.95;;;;;;;;;;5083856;28;20038;-44
2021/08/07 12:59:23;;;;;;;2.80;2.50;;;;;;;;;;5084396;28;20364;-43
2021/08/07 13:02:02;;;;;;;2.20;2.10;;;;;;;;;;5082410;28;20021;-46
2021/08/07 13:04:48;;;;;;;2.22;2.13;;;;;;;;;;5081736;28;20073;-45
2021/08/07 13:07:15;;;;;;;3.38;2.60;;;;;;;;;;5066374;28;20012;-43
2021/08/07 13:09:43;;;;;;;4.07;2.47;;;;;;;;;;5084029;28;20522;-48
2021/08/07 13:12:11;;;;;;;3.33;2.50;;;;;;;;;;5082238;28;20042;-44
2021/08/07 13:14:39;;;;;;;3.53;3.20;;;;;;;;;;5072543;28;20028;-46
2021/08/07 13:17:06;;;;;;;3.00;2.80;;;;;;;;;;5094381;28;20048;-44
2021/08/07 13:19:35;;;;;;;3.88;2.90;;;;;;;;;;5094626;28;20025;-44
2021/08/07 13:22:10;;;;;;;2.72;2.53;;;;;;;;;;5076254;28;20081;-43
2021/08/07 13:24:41;;;;;;;3.40;3.10;;;;;;;;;;5094259;28;20464;-47
2021/08/07 13:27:09;;;;;;;3.08;2.88;;;;;;;;;;5094196;28;20386;-44
2021/08/07 13:29:35;;;;;;;3.30;3.10;;;;;;;;;;5094266;28;20024;-43
2021/08/07 13:32:15;;;;;;;4.45;2.92;;;;;;;;;;5094257;28;20027;-44
2021/08/07 13:34:41;;;;;;;3.58;3.05;;;;;;;;;;5094601;28;20031;-44
2021/08/07 13:37:07;;;;;;;4.97;3.30;;;;;;;;;;5094479;28;20036;-43
2021/08/07 13:39:35;;;;;;;2.90;2.70;;;;;;;;;;5094068;28;20050;-44
2021/08/07 13:42:01;;;;;;;3.55;3.03;;;;;;;;;;5094225;28;20024;-44
2021/08/07 13:44:27;;;;;;;3.65;3.33;;;;;;;;;;5094157;28;20475;-44
2021/08/07 13:46:53;;;;;;;3.42;2.88;;;;;;;;;;5093952;28;20031;-45
2021/08/07 13:49:20;;;;;;;5.68;4.00;;;;;;;;;;5091518;28;20544;-44
2021/08/07 13:51:46;;;;;;;3.80;3.50;;;;;;;;;;5093743;28;20067;-44
2021/08/07 13:54:12;;;;;;;3.05;2.85;;;;;;;;;;5093933;28;20483;-43
2021/08/07 13:56:38;;;;;;;3.00;2.78;;;;;;;;;;5093792;28;20097;-43
2021/08/07 13:59:04;;;;;;;4.57;3.40;;;;;;;;;;5075477;28;20032;-44
2021/08/07 14:01:30;;;;;;;3.45;3.17;;;;;;;;;;5093727;28;20118;-45
2021/08/07 14:03:56;;;;;;;3.72;3.15;;;;;;;;;;5093910;28;20498;-44
2021/08/07 14:06:22;;;;;;;3.55;3.25;;;;;;;;;;5089899;28;20024;-44
2021/08/07 14:08:49;;;;;;;3.72;3.42;;;;;;;;;;5077978;28;20361;-45
2021/08/07 14:11:16;;;;;;;4.53;4.13;;;;;;;;;;5073192;28;20028;-43
2021/08/07 14:13:42;;;;;;;3.83;3.50;;;;;;;;;;5073267;28;20027;-43
2021/08/07 14:16:08;;;;;;;3.70;3.40;;;;;;;;;;5055010;28;20549;-44
2021/08/07 14:18:34;;;;;;;3.28;2.97;;;;;;;;;;5073386;28;20353;-44
2021/08/07 14:21:00;;;;;;;6.50;4.07;;;;;;;;;;5073171;28;20035;-47
2021/08/07 14:23:27;;;;;;;4.00;3.63;;;;;;;;;;5073237;28;20032;-44
2021/08/07 14:25:53;;;;;;;4.63;4.22;;;;;;;;;;5072996;28;20111;-45
2021/08/07 14:28:19;;;;;;;5.93;4.13;;;;;;;;;;5072919;28;20044;-44
2021/08/07 14:30:45;;;;;;;4.40;3.90;;;;;;;;;;5073117;28;20035;-45
2021/08/07 14:33:11;;;;;;;5.05;3.80;;;;;;;;;;5072781;28;20380;-44
2021/08/07 14:35:38;;;;;;;6.07;4.03;;;;;;;;;;5072924;28;20086;-44
2021/08/07 14:38:04;;;;;;;5.35;4.07;;;;;;;;;;5055275;28;20044;-44